Time;durP1;ratioP1;P1;durP2;ratioP2;P2;SDS_P1;SDS_P2;PMS_P1;PMS_P2;Temp;Humidity;BMP_temperature;BMP_pressure;BME280_temperature;BME280_humidity;BME280_pressure;Samples;Min_cycle;Max_cycle;Signal;HPM_P1;HPM_P2
2022/06/21 00:01:18;;;;;;;6.25;4.45;;;;;;;22.86;64.27;100757.13;5031525;28;19917;-84
2022/06/21 00:03:45;;;;;;;4.97;4.18;;;;;;;23.06;64.20;100792.75;5051095;28;20029;-85
2022/06/21 00:06:18;;;;;;;5.65;4.47;;;;;;;23.00;63.92;100791.81;5027637;28;20435;-85
2022/06/21 00:08:43;;;;;;;5.75;4.07;;;;;;;22.96;64.33;100797.13;5016181;28;20063;-85
2022/06/21 00:11:30;;;;;;;4.38;3.97;;;;;;;22.80;64.15;100754.47;5050420;28;20064;-83
2022/06/21 00:13:56;;;;;;;6.88;4.05;;;;;;;22.87;64.02;100762.47;5050020;28;20040;-85
2022/06/21 00:16:22;;;;;;;;;;;;;;;23.08;63.67;100775.00;5052237;28;20033;-85
2022/06/21 00:18:48;;;;;;;5.22;4.30;;;;;;;22.98;63.68;100760.72;5032243;28;20015;-85
2022/06/21 00:21:23;;;;;;;4.90;4.00;;;;;;;22.86;63.71;100746.47;5031853;28;20086;-85
2022/06/21 00:23:51;;;;;;;5.03;4.43;;;;;;;22.64;63.78;100719.78;5032081;28;20158;-85
2022/06/21 00:26:19;;;;;;;6.85;4.93;;;;;;;22.76;63.54;100726.94;5024470;28;20080;-84
2022/06/21 00:28:44;;;;;;;6.60;4.85;;;;;;;22.76;63.49;100725.16;5032727;28;20044;-84
2022/06/21 00:31:31;;;;;;;6.90;4.40;;;;;;;23.01;63.45;100764.31;5049793;28;20063;-86
2022/06/21 00:33:58;;;;;;;5.13;3.90;;;;;;;22.97;63.54;100755.41;5044997;28;20106;-85
2022/06/21 00:36:27;;;;;;;6.45;4.15;;;;;;;23.00;63.51;100766.06;5026896;28;20037;-85
2022/06/21 00:38:55;;;;;;;5.15;4.07;;;;;;;22.69;63.46;100722.47;5026664;28;20053;-85
2022/06/21 00:41:39;;;;;;;5.25;4.38;;;;;;;22.69;63.52;100730.44;5032517;28;20484;-85
2022/06/21 00:44:08;;;;;;;4.72;4.22;;;;;;;22.90;63.42;100769.56;5024102;28;20029;-85
2022/06/21 00:46:39;;;;;;;5.22;4.13;;;;;;;22.95;63.25;100770.50;5027979;28;20033;-85
2022/06/21 00:49:16;;;;;;;6.25;4.43;;;;;;;22.81;63.25;100740.25;5021553;28;20063;-85
2022/06/21 00:51:42;;;;;;;5.38;4.43;;;;;;;22.94;63.35;100769.63;5031294;28;20662;-85
2022/06/21 00:54:16;;;;;;;;;;;;;;;22.98;63.24;100755.38;5034017;28;20409;-85
2022/06/21 00:56:52;;;;;;;4.82;4.07;;;;;;;22.94;62.85;100744.72;5030733;28;20311;-85
2022/06/21 00:59:32;;;;;;;6.68;4.10;;;;;;;22.92;63.33;100746.50;5021631;28;20038;-85
2022/06/21 01:02:03;;;;;;;5.80;4.13;;;;;;;22.83;62.89;100738.50;5012542;28;20401;-85
2022/06/21 01:04:36;;;;;;;6.53;4.40;;;;;;;22.91;62.88;100758.94;5030770;28;20067;-85
2022/06/21 01:07:04;;;;;;;6.10;4.38;;;;;;;22.90;62.66;100761.59;5028249;28;20393;-85
2022/06/21 01:09:35;;;;;;;7.90;4.00;;;;;;;22.91;62.75;100760.72;5032355;28;20123;-85
2022/06/21 01:12:04;;;;;;;5.53;4.10;;;;;;;22.89;62.86;100760.69;5014763;28;20028;-85
2022/06/21 01:14:31;;;;;;;5.10;4.30;;;;;;;22.82;62.75;100748.25;5032349;28;20036;-86
2022/06/21 01:16:57;;;;;;;6.10;4.50;;;;;;;22.53;62.73;100700.25;5029655;28;20033;-84
2022/06/21 01:19:38;;;;;;;8.85;4.20;;;;;;;22.58;62.62;100714.44;5031922;28;20048;-85
2022/06/21 01:22:38;;;;;;;4.40;4.00;;;;;;;22.83;62.48;100758.00;5030499;28;20558;-85
2022/06/21 01:25:12;;;;;;;5.45;3.72;;;;;;;22.83;62.69;100762.47;5051637;28;20068;-85
2022/06/21 01:27:38;;;;;;;5.57;3.83;;;;;;;22.84;62.66;100766.88;5029943;28;20027;-85
2022/06/21 01:30:05;;;;;;;5.63;4.50;;;;;;;22.80;62.62;100771.34;5030924;28;20081;-85
2022/06/21 01:32:31;;;;;;;5.07;4.18;;;;;;;22.77;62.67;100772.22;5029449;28;20049;-84
2022/06/21 01:34:57;;;;;;;7.18;4.22;;;;;;;22.82;62.80;100776.63;5025369;28;20044;-85
2022/06/21 01:37:29;;;;;;;5.53;4.30;;;;;;;22.63;62.58;100744.66;5027911;28;20086;-85
2022/06/21 01:40:03;;;;;;;5.18;4.38;;;;;;;22.80;62.95;100786.44;5027172;28;20463;-86
2022/06/21 01:42:33;;;;;;;6.32;4.35;;;;;;;22.79;62.69;100773.97;5028474;28;20495;-84
2022/06/21 01:45:04;;;;;;;4.93;3.90;;;;;;;22.54;62.48;100742.84;5049589;28;20131;-85
2022/06/21 01:47:37;;;;;;;6.55;3.85;;;;;;;22.52;62.84;100760.56;5032025;28;20476;-85
2022/06/21 01:50:05;;;;;;;6.38;4.45;;;;;;;22.52;62.72;100749.91;5031808;28;20472;-86
2022/06/21 01:52:33;;;;;;;4.25;3.88;;;;;;;22.74;62.70;100790.81;5020647;28;20040;-86
2022/06/21 01:55:03;;;;;;;4.50;4.10;;;;;;;22.69;62.84;100784.59;5028364;28;20412;-85
2022/06/21 01:57:29;;;;;;;7.18;4.00;;;;;;;22.73;62.71;100782.81;5031008;28;20330;-85
2022/06/21 01:59:54;;;;;;;;;;;;;;;22.78;62.59;100786.41;5033137;28;20108;-85
2022/06/21 02:02:23;;;;;;;5.45;3.90;;;;;;;22.34;62.55;100733.84;5048394;28;20040;-85
2022/06/21 02:04:52;;;;;;;5.18;3.83;;;;;;;22.74;62.67;100779.28;5048111;28;20052;-85
2022/06/21 02:07:20;;;;;;;4.80;3.90;;;;;;;22.63;62.56;100765.94;5043128;28;20491;-85
2022/06/21 02:09:50;;;;;;;7.85;4.00;;;;;;;22.45;62.47;100731.25;5029251;28;20182;-84
2022/06/21 02:12:16;;;;;;;9.13;4.32;;;;;;;22.59;62.43;100749.94;5029949;28;20480;-84
2022/06/21 02:14:48;;;;;;;4.90;4.15;;;;;;;22.65;62.52;100764.16;5047402;28;20048;-83
2022/06/21 02:17:20;;;;;;;5.53;4.00;;;;;;;22.72;62.46;100787.25;5028644;28;20041;-84
2022/06/21 02:19:52;;;;;;;5.57;3.78;;;;;;;22.70;62.33;100786.38;5049915;28;20032;-83
2022/06/21 02:22:21;;;;;;;4.32;3.90;;;;;;;22.68;62.50;100780.13;5048985;28;20427;-85
2022/06/21 02:24:47;;;;;;;3.88;3.58;;;;;;;22.49;62.29;100743.69;5031154;28;20025;-85
2022/06/21 02:27:16;;;;;;;4.38;3.97;;;;;;;22.62;62.28;100768.59;5015577;28;20033;-85
2022/06/21 02:29:43;;;;;;;5.68;4.00;;;;;;;22.69;62.47;100791.66;5036030;28;20044;-85
2022/06/21 02:32:16;;;;;;;7.25;3.92;;;;;;;22.68;62.39;100789.91;5021720;28;20496;-84
2022/06/21 02:34:42;;;;;;;4.10;3.70;;;;;;;22.57;62.38;100749.94;5034167;28;20028;-84
2022/06/21 02:37:09;;;;;;;;;;;;;;;22.77;62.17;100773.97;5034162;28;20060;-83
2022/06/21 02:39:36;;;;;;;6.45;3.75;;;;;;;22.45;62.32;100739.22;5016062;28;19999;-84
2022/06/21 02:42:18;;;;;;;6.07;4.15;;;;;;;22.38;62.15;100716.16;5035056;28;20501;-84
2022/06/21 02:44:47;;;;;;;4.50;3.80;;;;;;;22.71;62.55;100766.88;5026540;28;20044;-84
2022/06/21 02:47:16;;;;;;;6.40;3.95;;;;;;;22.61;62.01;100759.72;5028727;28;20478;-84
2022/06/21 02:49:53;;;;;;;6.13;4.00;;;;;;;22.63;62.21;100768.59;5015665;28;20028;-84
2022/06/21 02:52:25;;;;;;;4.20;3.58;;;;;;;22.67;62.09;100761.50;5042447;28;20539;-83
2022/06/21 02:55:02;;;;;;;4.53;3.72;;;;;;;22.46;62.20;100714.41;5027824;28;20029;-83
2022/06/21 02:57:38;;;;;;;8.20;4.10;;;;;;;22.63;62.09;100738.44;5024099;28;20036;-84
2022/06/21 03:00:06;;;;;;;8.43;4.40;;;;;;;22.66;62.10;100747.31;5029099;28;20512;-85
2022/06/21 03:02:35;;;;;;;4.25;3.85;;;;;;;22.36;61.83;100694.84;5009853;28;20068;-85
2022/06/21 03:05:07;;;;;;;3.63;3.33;;;;;;;22.64;61.95;100742.88;5033655;28;20102;-84
2022/06/21 03:07:38;;;;;;;4.18;3.65;;;;;;;;;;5052820;28;20396;-84
2022/06/21 03:10:06;;;;;;;5.55;3.80;;;;;;;22.35;62.11;100701.03;5033647;28;20064;-85
2022/06/21 03:12:33;;;;;;;5.38;3.90;;;;;;;22.49;62.22;100711.75;5035249;28;20032;-85
2022/06/21 03:15:08;;;;;;;7.60;4.35;;;;;;;22.32;62.40;100696.59;5051703;28;20028;-84
2022/06/21 03:18:10;;;;;;;7.45;4.32;;;;;;;22.50;62.37;100741.03;5046204;28;20031;-84
2022/06/21 03:20:36;;;;;;;7.13;4.05;;;;;;;22.54;62.33;100744.59;5021176;28;20463;-84
2022/06/21 03:23:03;;;;;;;8.02;4.20;;;;;;;22.60;61.89;100749.06;5049865;28;20024;-85
2022/06/21 03:25:41;;;;;;;4.70;3.83;;;;;;;22.48;61.92;100721.50;5039805;28;20025;-85
2022/06/21 03:28:34;;;;;;;5.60;4.10;;;;;;;22.56;62.04;100738.41;5049004;28;20146;-84
2022/06/21 03:31:05;;;;;;;7.18;4.00;;;;;;;22.54;62.12;100750.81;5028273;28;20026;-85
2022/06/21 03:33:32;;;;;;;6.40;3.72;;;;;;;22.55;62.01;100749.91;5032150;28;20239;-85
2022/06/21 03:35:58;;;;;;;6.95;3.88;;;;;;;22.44;62.13;100726.81;5032265;28;20060;-85
2022/06/21 03:38:23;;;;;;;;;;;;;;;22.61;62.02;100756.19;5051637;28;20250;-85
2022/06/21 03:43:48;;;;;;;6.88;4.28;;;;;;;22.25;62.17;100701.91;5035138;28;20490;-84
2022/06/21 03:46:22;;;;;;;4.75;4.25;;;;;;;22.29;62.18;100711.69;5028767;28;20055;-85
2022/06/21 03:49:03;;;;;;;6.72;4.38;;;;;;;22.45;62.21;100749.88;5033499;28;20515;-84
2022/06/21 03:51:40;;;;;;;5.45;4.18;;;;;;;22.46;61.96;100747.22;5030838;28;20120;-85
2022/06/21 03:54:12;;;;;;;6.10;4.13;;;;;;;22.45;62.04;100739.22;5042732;28;20025;-85
2022/06/21 03:56:51;;;;;;;6.55;4.30;;;;;;;22.43;61.95;100738.34;5034292;28;20025;-84
2022/06/21 03:59:49;;;;;;;6.28;4.25;;;;;;;22.47;61.75;100743.66;5048434;28;20025;-85
2022/06/21 04:02:25;;;;;;;5.15;4.13;;;;;;;22.26;61.98;100709.88;5034267;28;20045;-85
2022/06/21 04:04:52;;;;;;;6.82;3.85;;;;;;;22.45;61.89;100741.88;5048128;28;20111;-84
2022/06/21 04:07:32;;;;;;;7.85;4.20;;;;;;;22.45;62.34;100744.56;5012779;28;20086;-84
2022/06/21 04:10:20;;;;;;;6.82;4.43;;;;;;;;;;5022930;28;20029;-84
2022/06/21 04:12:56;;;;;;;6.43;4.10;;;;;;;22.45;61.98;100736.56;5051276;28;20028;-85
2022/06/21 04:15:45;;;;;;;;;;;;;;;22.46;61.97;100735.69;5018305;28;20112;-86
2022/06/21 04:18:29;;;;;;;4.95;4.45;;;;;;;;;;5046026;28;19939;-85
2022/06/21 04:21:09;;;;;;;6.63;4.20;;;;;;;22.45;61.81;100723.25;5044226;28;20021;-85
2022/06/21 04:23:53;;;;;;;5.30;4.57;;;;;;;22.41;62.05;100727.66;5022811;28;20033;-84
2022/06/21 04:26:39;;;;;;;10.13;5.05;;;;;;;22.41;62.05;100722.34;5034378;28;20036;-83
2022/06/21 04:29:13;;;;;;;5.90;4.40;;;;;;;22.36;62.05;100702.81;5030665;28;20017;-85
2022/06/21 04:31:49;;;;;;;6.03;4.20;;;;;;;22.04;62.09;100649.44;5033286;28;20074;-85
2022/06/21 04:34:22;;;;;;;5.97;4.50;;;;;;;22.34;62.35;100699.28;4994445;28;20041;-85
2022/06/21 04:36:57;;;;;;;5.10;4.60;;;;;;;22.33;62.22;100698.38;5005794;28;20079;-85
2022/06/21 04:39:35;;;;;;;7.85;4.63;;;;;;;22.42;62.20;100704.63;5030548;28;20508;-85
2022/06/21 04:42:06;;;;;;;5.78;4.50;;;;;;;22.30;62.17;100678.84;5010720;28;20071;-86
2022/06/21 04:44:57;;;;;;;12.55;5.10;;;;;;;22.41;62.17;100695.75;5013002;28;20103;-85
2022/06/21 04:47:29;;;;;;;6.60;5.13;;;;;;;22.42;62.29;100697.53;5030802;28;20041;-84
2022/06/21 04:50:20;;;;;;;7.32;5.22;;;;;;;22.39;62.35;100694.84;5029193;28;20041;-84
2022/06/21 04:53:00;;;;;;;7.07;5.30;;;;;;;22.35;62.42;100693.97;4981542;28;20029;-85
2022/06/21 04:55:34;;;;;;;8.05;4.95;;;;;;;22.36;63.07;100701.06;4994459;28;20083;-86
2022/06/21 04:57:59;;;;;;;6.45;4.82;;;;;;;22.30;63.09;100690.38;5007604;28;20108;-85
2022/06/21 05:00:25;;;;;;;7.50;4.88;;;;;;;22.20;63.50;100669.00;5027773;28;20184;-85
2022/06/21 05:02:54;;;;;;;6.25;4.95;;;;;;;22.20;62.74;100669.00;5000347;28;20526;-85
2022/06/21 05:05:26;;;;;;;5.40;4.82;;;;;;;22.15;63.24;100656.56;5012266;28;20034;-85
2022/06/21 05:08:07;;;;;;;5.43;4.93;;;;;;;22.30;63.22;100685.06;5026791;28;20026;-86
2022/06/21 05:10:36;;;;;;;6.95;4.50;;;;;;;22.35;63.11;100704.59;5013197;28;20572;-85
2022/06/21 05:13:06;;;;;;;5.43;4.55;;;;;;;22.40;62.99;100704.63;5006772;28;20029;-85
2022/06/21 05:15:34;;;;;;;5.13;4.63;;;;;;;21.88;63.21;100617.44;5029196;28;20591;-86
2022/06/21 05:18:08;;;;;;;5.60;4.78;;;;;;;22.34;63.61;100697.50;5013354;28;20029;-85
2022/06/21 05:20:36;;;;;;;6.13;4.88;;;;;;;22.07;63.55;100652.09;5013616;28;20028;-83
2022/06/21 05:23:05;;;;;;;5.95;4.60;;;;;;;22.34;63.50;100694.81;5013276;28;20401;-84
2022/06/21 05:25:40;;;;;;;5.47;4.43;;;;;;;22.32;63.17;100690.38;5017641;28;20654;-84
2022/06/21 05:28:15;;;;;;;5.53;5.00;;;;;;;22.20;63.30;100667.22;5003042;28;20036;-83
2022/06/21 05:30:41;;;;;;;6.13;4.88;;;;;;;22.36;63.51;100697.50;5002435;28;20030;-83
2022/06/21 05:33:14;;;;;;;7.80;5.25;;;;;;;22.30;63.12;100694.81;5027113;28;20052;-83
2022/06/21 05:35:41;;;;;;;5.13;4.65;;;;;;;21.92;63.73;100619.22;5012212;28;20036;-83
2022/06/21 05:38:11;;;;;;;8.55;5.05;;;;;;;22.32;63.93;100685.94;5022664;28;20085;-81
2022/06/21 05:40:41;;;;;;;5.30;4.80;;;;;;;22.21;63.77;100660.16;5041880;28;20112;-81
2022/06/21 05:43:38;;;;;;;5.13;4.65;;;;;;;22.05;63.71;100625.50;5050903;28;20029;-81
2022/06/21 05:46:05;;;;;;;;;;;;;;;22.41;63.48;100677.13;5046453;28;20519;-81
2022/06/21 05:48:33;;;;;;;5.70;4.75;;;;;;;22.30;63.47;100665.56;5031189;28;20504;-81
2022/06/21 05:51:00;;;;;;;5.57;5.00;;;;;;;22.32;63.73;100664.66;5028694;28;20051;-81
2022/06/21 05:53:36;;;;;;;4.75;4.35;;;;;;;22.25;63.66;100652.25;5013539;28;20099;-81
2022/06/21 05:56:07;;;;;;;;;;;;;;;22.43;63.42;100667.38;5040931;28;20036;-82
2022/06/21 05:58:37;;;;;;;5.05;4.60;;;;;;;22.44;63.44;100652.31;5019232;28;20339;-81
2022/06/21 06:01:40;;;;;;;5.03;4.53;;;;;;;22.38;63.51;100650.50;5032469;28;20094;-82
2022/06/21 06:04:23;;;;;;;7.57;5.00;;;;;;;22.28;63.48;100641.59;5042268;28;20581;-83
2022/06/21 06:06:48;;;;;;;8.18;5.55;;;;;;;22.38;64.10;100657.63;5023192;28;20026;-83
2022/06/21 06:09:19;;;;;;;6.07;5.15;;;;;;;22.41;64.35;100663.81;5054559;28;20033;-81
2022/06/21 06:12:00;;;;;;;5.88;5.18;;;;;;;22.49;63.82;100655.88;5054183;28;20079;-83
2022/06/21 06:14:37;;;;;;;5.47;4.97;;;;;;;22.54;63.92;100655.00;5036996;28;20557;-82
2022/06/21 06:17:07;;;;;;;7.03;5.10;;;;;;;22.53;63.92;100652.34;5034195;28;20036;-83
2022/06/21 06:19:38;;;;;;;5.85;5.35;;;;;;;22.49;64.27;100650.53;5043845;28;20028;-82
2022/06/21 06:22:21;;;;;;;5.80;5.20;;;;;;;22.53;64.24;100650.56;5040505;28;20116;-83
2022/06/21 06:24:56;;;;;;;6.05;4.90;;;;;;;22.45;64.41;100635.44;5036638;28;20416;-84
2022/06/21 06:27:55;;;;;;;6.13;5.15;;;;;;;22.51;64.61;100647.00;5020076;28;20407;-82
2022/06/21 06:30:27;;;;;;;6.03;5.28;;;;;;;22.52;64.49;100651.44;5025784;28;20045;-82
2022/06/21 06:33:11;;;;;;;6.80;5.20;;;;;;;22.49;64.55;100634.56;5036315;28;20045;-83
2022/06/21 06:35:37;;;;;;;5.82;5.28;;;;;;;22.52;64.65;100638.16;5018561;28;20057;-82
2022/06/21 06:38:03;;;;;;;6.88;5.40;;;;;;;22.52;64.53;100638.16;5016924;28;20142;-81
2022/06/21 06:40:35;;;;;;;5.78;5.03;;;;;;;22.56;64.68;100645.25;5030063;28;20040;-82
2022/06/21 06:43:05;;;;;;;5.93;5.00;;;;;;;22.47;64.75;100623.03;5023093;28;20028;-82
2022/06/21 06:45:34;;;;;;;6.28;5.30;;;;;;;22.56;64.75;100642.59;5036361;28;20027;-83
2022/06/21 06:48:03;;;;;;;5.88;5.10;;;;;;;22.57;64.71;100648.81;5053588;28;20476;-83
2022/06/21 06:50:55;;;;;;;7.97;5.28;;;;;;;22.44;65.11;100629.25;5036527;28;20035;-83
2022/06/21 06:53:41;;;;;;;5.55;4.80;;;;;;;22.60;64.83;100654.13;5019487;28;20021;-82
2022/06/21 06:56:13;;;;;;;7.30;5.45;;;;;;;22.56;64.81;100637.28;5053262;28;20103;-82
2022/06/21 06:58:44;;;;;;;6.80;5.22;;;;;;;22.62;64.93;100641.69;5031090;28;20104;-82
2022/06/21 07:01:37;;;;;;;6.65;5.30;;;;;;;22.42;65.17;100614.16;5027625;28;20013;-82
2022/06/21 07:04:04;;;;;;;9.27;5.57;;;;;;;22.62;65.21;100648.81;5035615;28;20021;-81
2022/06/21 07:06:32;;;;;;;6.20;5.60;;;;;;;22.61;65.30;100645.25;5036150;28;20056;-83
2022/06/21 07:09:24;;;;;;;7.03;5.50;;;;;;;22.62;65.32;100649.69;5047668;28;20083;-82
2022/06/21 07:12:10;;;;;;;8.07;5.82;;;;;;;22.64;65.22;100647.91;5024663;28;20037;-83
2022/06/21 07:14:36;;;;;;;6.07;5.18;;;;;;;22.58;65.25;100633.72;5014713;28;20382;-82
2022/06/21 07:17:27;;;;;;;7.43;5.72;;;;;;;22.69;65.26;100651.50;5032054;28;20036;-81
2022/06/21 07:19:54;;;;;;;8.25;5.55;;;;;;;22.56;65.31;100625.72;5022321;28;20491;-81
2022/06/21 07:22:22;;;;;;;5.85;5.28;;;;;;;22.55;65.54;100627.50;5035560;28;20017;-82
2022/06/21 07:24:57;;;;;;;6.10;5.47;;;;;;;22.70;65.41;100644.41;5035649;28;20028;-83
2022/06/21 07:27:26;;;;;;;5.72;5.20;;;;;;;22.59;65.59;100630.19;5035184;28;20476;-82
2022/06/21 07:29:58;;;;;;;6.35;5.50;;;;;;;22.70;65.42;100647.06;5025857;28;20017;-81
2022/06/21 07:32:28;;;;;;;7.65;5.82;;;;;;;22.67;65.57;100649.69;5048831;28;20052;-82
2022/06/21 07:34:59;;;;;;;7.72;5.55;;;;;;;22.68;65.66;100646.16;5052238;28;20024;-83
2022/06/21 07:37:31;;;;;;;6.30;5.50;;;;;;;22.80;65.54;100654.19;5052414;28;20036;-83
2022/06/21 07:40:14;;;;;;;8.82;5.55;;;;;;;22.53;65.58;100618.63;5020081;28;20032;-82
2022/06/21 07:42:48;;;;;;;6.72;5.90;;;;;;;22.62;65.69;100627.50;5056557;28;20462;-82
2022/06/21 07:45:28;;;;;;;7.75;5.90;;;;;;;22.76;65.61;100647.06;5060058;28;20029;-79
2022/06/21 07:48:05;;;;;;;8.50;5.75;;;;;;;22.59;65.95;100620.41;5062091;28;20527;-82
2022/06/21 07:50:42;;;;;;;7.07;5.82;;;;;;;22.80;65.89;100647.97;5029861;28;20029;-83
2022/06/21 07:53:13;;;;;;;7.88;6.18;;;;;;;22.76;65.85;100641.75;5052934;28;20047;-81
2022/06/21 07:55:43;;;;;;;6.25;5.65;;;;;;;22.70;65.78;100623.97;5034850;28;20120;-81
2022/06/21 07:58:23;;;;;;;7.07;5.97;;;;;;;22.71;65.96;100615.13;5021082;28;20045;-82
2022/06/21 08:06:41;;;;;;;8.43;5.65;;;;;;;22.77;66.30;100631.13;4990992;28;20030;-81
2022/06/21 08:09:39;;;;;;;9.05;6.78;;;;;;;22.85;66.51;100625.78;5038827;28;20037;-82
2022/06/21 08:12:05;;;;;;;11.57;6.90;;;;;;;22.84;66.80;100629.34;5040354;28;20052;-82
2022/06/21 08:14:31;;;;;;;;;;;;;;;22.89;66.54;100632.00;5018725;28;20521;-82
2022/06/21 08:17:03;;;;;;;7.68;6.07;;;;;;;22.83;66.57;100616.03;5051905;28;19940;-82
2022/06/21 08:19:54;;;;;;;7.45;6.47;;;;;;;22.85;66.09;100622.22;5052421;28;20400;-84
2022/06/21 08:22:34;;;;;;;9.27;6.88;;;;;;;22.88;66.45;100636.44;5034182;28;20510;-81
2022/06/21 08:25:25;;;;;;;6.70;5.97;;;;;;;22.94;66.24;100636.47;5051800;28;20499;-85
2022/06/21 08:27:58;;;;;;;38.53;9.10;;;;;;;22.89;66.73;100630.22;5032578;28;20376;-85
2022/06/21 08:30:38;;;;;;;22.30;8.15;;;;;;;22.87;66.59;100629.34;5051485;28;20021;-82
2022/06/21 08:33:14;;;;;;;27.38;9.00;;;;;;;23.00;66.49;100632.91;5033894;28;20049;-81
2022/06/21 08:35:49;;;;;;;43.85;10.00;;;;;;;22.91;66.70;100617.81;5022521;28;20028;-82
2022/06/21 08:38:33;;;;;;;47.72;10.25;;;;;;;22.93;66.94;100625.78;5034233;28;20037;-82
2022/06/21 08:45:40;;;;;;;59.08;12.05;;;;;;;22.90;67.37;100620.44;5040529;28;20078;-82
2022/06/21 08:47:57;;;;;;;50.47;10.68;;;;;;;22.91;67.18;100619.59;5051530;28;20495;-82
2022/06/21 08:50:39;;;;;;;53.92;11.35;;;;;;;22.93;67.15;100616.03;5039232;28;20122;-83
2022/06/21 08:53:33;;;;;;;57.00;12.43;;;;;;;22.96;67.22;100610.72;5015295;28;20044;-81
2022/06/21 08:56:22;;;;;;;59.30;12.38;;;;;;;23.01;67.15;100612.50;5033807;28;20029;-82
2022/06/21 08:59:03;;;;;;;54.63;11.77;;;;;;;23.03;67.12;100606.31;5019910;28;20492;-82
2022/06/21 09:01:44;;;;;;;51.65;11.80;;;;;;;23.07;67.17;100608.09;5033553;28;20029;-82
2022/06/21 09:04:16;;;;;;;59.15;12.02;;;;;;;23.08;67.27;100608.97;5039894;28;20087;-81
2022/06/21 09:06:47;;;;;;;57.03;12.30;;;;;;;23.07;67.30;100605.44;5051117;28;20021;-82
2022/06/21 09:09:52;;;;;;;48.70;11.93;;;;;;;23.11;67.23;100598.31;5043596;28;20053;-82
2022/06/21 09:12:24;;;;;;;39.75;10.75;;;;;;;23.12;67.31;100600.09;4992279;28;20038;-82
2022/06/21 09:15:14;;;;;;;46.13;11.85;;;;;;;23.11;67.46;100604.53;5045608;28;20045;-82
2022/06/21 09:17:42;;;;;;;42.33;11.50;;;;;;;23.14;67.44;100603.66;5039069;28;20016;-82
2022/06/21 09:20:26;;;;;;;36.35;11.55;;;;;;;23.10;67.69;100605.41;5051409;28;20103;-82
2022/06/21 09:23:29;;;;;;;32.08;10.50;;;;;;;23.14;67.53;100598.31;5031328;28;20032;-82
2022/06/21 09:26:09;;;;;;;31.33;10.35;;;;;;;23.39;66.81;100601.84;5029473;28;20052;-83
2022/06/21 09:28:39;;;;;;;32.78;10.65;;;;;;;23.29;67.30;100602.75;5043214;28;20104;-83
2022/06/21 09:31:15;;;;;;;26.25;10.52;;;;;;;23.22;67.58;100600.97;5013498;28;20463;-83
2022/06/21 09:33:48;;;;;;;29.65;10.57;;;;;;;23.08;67.61;100579.69;5026567;28;20040;-82
2022/06/21 09:36:32;;;;;;;22.75;10.05;;;;;;;23.11;67.74;100577.00;5019527;28;20053;-80
2022/06/21 09:39:09;;;;;;;29.48;10.70;;;;;;;23.16;67.92;100592.09;5050863;28;20094;-82
2022/06/21 09:42:12;;;;;;;24.90;9.82;;;;;;;23.24;67.65;100588.53;5050874;28;20506;-82
2022/06/21 09:44:43;;;;;;;54.70;12.23;;;;;;;23.25;67.70;100587.66;5050928;28;20052;-82
2022/06/21 09:47:21;;;;;;;56.38;12.80;;;;;;;23.32;67.53;100592.06;5032937;28;20573;-82
2022/06/21 09:49:57;;;;;;;42.70;11.40;;;;;;;23.31;67.64;100585.00;5036718;28;20061;-83
2022/06/21 09:52:42;;;;;;;42.03;12.00;;;;;;;23.32;67.44;100584.09;5039634;28;20112;-85
2022/06/21 09:55:12;;;;;;;35.20;11.00;;;;;;;23.34;67.59;100574.31;5048128;28;20017;-81
2022/06/21 09:58:09;;;;;;;40.45;11.68;;;;;;;23.33;67.83;100577.88;5050969;28;20543;-83
2022/06/21 10:00:43;;;;;;;30.58;11.10;;;;;;;23.41;67.53;100576.09;4981312;28;20049;-82
2022/06/21 10:03:36;;;;;;;27.48;9.85;;;;;;;23.50;67.35;100577.84;5033385;28;20032;-81
2022/06/21 10:06:26;;;;;;;29.27;10.10;;;;;;;23.42;67.65;100579.63;5022872;28;20096;-82
2022/06/21 10:09:16;;;;;;;130.73;18.60;;;;;;;23.41;67.89;100573.44;5032901;28;20419;-82
2022/06/21 10:11:56;;;;;;;64.38;13.82;;;;;;;23.32;67.68;100554.78;5050192;28;20021;-82
2022/06/21 10:14:40;;;;;;;90.88;15.00;;;;;;;23.37;67.82;100563.66;5030742;28;20511;-81
2022/06/21 10:17:25;;;;;;;106.38;16.70;;;;;;;23.40;67.86;100568.97;5047500;28;20578;-82
2022/06/21 10:20:22;;;;;;;85.40;16.90;;;;;;;23.44;67.71;100570.75;5050534;28;20032;-83
2022/06/21 10:22:57;;;;;;;78.88;15.95;;;;;;;23.38;68.12;100555.66;5038539;28;20475;-81
2022/06/21 10:25:41;;;;;;;67.22;14.45;;;;;;;23.33;68.25;100557.44;5049675;28;20108;-82
2022/06/21 10:28:07;;;;;;;69.22;14.30;;;;;;;23.48;68.53;100572.50;5040195;28;20115;-82
2022/06/21 10:31:05;;;;;;;74.25;14.35;;;;;;;23.46;68.54;100570.75;5049090;28;20112;-82
2022/06/21 10:33:38;;;;;;;68.10;13.43;;;;;;;23.50;68.51;100575.19;5011631;28;20431;-81
2022/06/21 10:36:33;;;;;;;60.53;13.23;;;;;;;23.50;68.18;100565.41;5050291;28;20029;-83
2022/06/21 10:39:05;;;;;;;49.90;13.15;;;;;;;23.55;68.58;100568.94;5032471;28;20024;-83
2022/06/21 10:45:23;;;;;;;43.63;11.68;;;;;;;23.51;68.64;100568.94;5050353;28;20036;-82
2022/06/21 10:48:10;;;;;;;37.50;11.63;;;;;;;23.54;68.76;100567.16;4969686;28;20093;-82
2022/06/21 10:50:55;;;;;;;42.92;11.60;;;;;;;23.58;68.53;100568.06;5048182;28;20083;-82
2022/06/21 10:53:51;;;;;;;39.10;11.55;;;;;;;23.52;68.83;100565.41;5019700;28;20108;-82
2022/06/21 11:03:02;;;;;;;36.35;10.30;;;;;;;23.45;69.00;100539.63;5041951;28;20510;-82
2022/06/21 11:05:45;;;;;;;29.42;10.15;;;;;;;23.57;69.27;100567.16;5051278;28;20043;-82
2022/06/21 11:08:32;;;;;;;28.58;9.05;;;;;;;23.56;69.31;100565.38;5065174;28;20044;-79
2022/06/21 11:11:06;;;;;;;26.08;9.23;;;;;;;23.58;69.18;100562.72;5050550;28;20032;-81
2022/06/21 11:13:39;;;;;;;27.52;8.95;;;;;;;23.48;69.27;100537.88;5023038;28;20036;-82
2022/06/21 11:16:13;;;;;;;28.23;9.38;;;;;;;23.51;69.24;100540.50;5028663;28;20033;-82
2022/06/21 11:18:41;;;;;;;27.95;9.05;;;;;;;23.67;69.17;100568.03;5033566;28;20051;-81
2022/06/21 11:21:28;;;;;;;25.27;8.18;;;;;;;23.67;69.38;100564.47;5041617;28;20411;-81
2022/06/21 11:24:20;;;;;;;26.30;8.50;;;;;;;23.40;69.25;100510.34;5053456;28;20037;-82
2022/06/21 11:26:58;;;;;;;18.92;8.23;;;;;;;23.64;69.17;100551.13;5041230;28;20455;-82
2022/06/21 11:29:48;;;;;;;22.60;7.97;;;;;;;23.64;69.35;100553.81;5021887;28;20032;-82
2022/06/21 11:32:27;;;;;;;18.02;8.30;;;;;;;23.57;69.24;100534.28;5038871;28;20057;-82
2022/06/21 11:35:18;;;;;;;18.95;7.78;;;;;;;23.74;69.40;100555.56;5035558;28;20476;-81
2022/06/21 11:38:10;;;;;;;17.40;7.63;;;;;;;23.58;69.08;100531.63;5035437;28;20045;-82
2022/06/21 11:40:51;;;;;;;17.17;7.88;;;;;;;23.70;69.15;100554.66;5035219;28;20498;-81
2022/06/21 11:43:29;;;;;;;15.18;6.63;;;;;;;23.72;69.23;100555.56;5053078;28;20032;-82
2022/06/21 11:46:14;;;;;;;14.32;7.15;;;;;;;23.68;69.53;100552.91;5050214;28;20029;-82
2022/06/21 11:48:45;;;;;;;14.18;6.93;;;;;;;23.73;69.22;100546.69;5034111;28;20060;-82
2022/06/21 11:51:11;;;;;;;18.48;7.38;;;;;;;23.73;69.31;100543.13;5060760;28;20033;-82
2022/06/21 11:53:44;;;;;;;;;;;;;;;23.73;69.32;100538.69;5043301;28;20406;-82
2022/06/21 11:56:18;;;;;;;14.02;7.50;;;;;;;23.77;69.52;100539.59;5053307;28;20014;-83
2022/06/21 11:59:06;;;;;;;12.38;7.00;;;;;;;23.76;69.79;100537.81;5034625;28;20431;-83
2022/06/21 12:01:52;;;;;;;12.68;6.90;;;;;;;23.72;69.91;100531.56;5045237;28;20037;-81
2022/06/21 12:04:49;;;;;;;14.40;6.88;;;;;;;23.74;69.94;100529.78;5049841;28;20527;-81
2022/06/21 12:07:20;;;;;;;17.23;6.90;;;;;;;23.54;69.55;100479.22;5032231;28;20033;-82
2022/06/21 12:10:03;;;;;;;11.50;7.05;;;;;;;23.84;69.20;100525.34;5023038;28;20037;-82
2022/06/21 12:13:07;;;;;;;13.68;6.75;;;;;;;23.82;69.16;100516.44;5044510;28;20044;-82
2022/06/21 12:15:55;;;;;;;12.15;6.35;;;;;;;23.58;69.32;100478.31;5047742;28;20025;-82
2022/06/21 12:18:29;;;;;;;10.23;6.18;;;;;;;23.85;69.00;100511.09;5032387;28;20028;-82
2022/06/21 12:21:05;;;;;;;11.00;6.15;;;;;;;23.54;69.41;100465.00;5014838;28;20113;-81
2022/06/21 12:24:11;;;;;;;8.77;6.13;;;;;;;23.77;69.07;100500.47;5015698;28;20021;-81
2022/06/21 12:26:43;;;;;;;10.80;6.30;;;;;;;23.81;69.34;100520.00;5025823;28;20112;-82
2022/06/21 12:29:15;;;;;;;12.82;6.13;;;;;;;23.67;69.19;100471.16;5033129;28;20044;-81